sensor_id;sensor_type;location;lat;lon;timestamp;P1;durP1;ratioP1;P2;durP2;ratioP2
37609;SDS011;23457;51.966;8.230;2023-05-07T00:00:18;19.55;;;14.27;;
37609;SDS011;23457;51.966;8.230;2023-05-07T00:02:45;23.60;;;14.30;;
37609;SDS011;23457;51.966;8.230;2023-05-07T00:05:13;21.63;;;13.93;;
37609;SDS011;23457;51.966;8.230;2023-05-07T00:07:40;20.65;;;14.63;;
37609;SDS011;23457;51.966;8.230;2023-05-07T00:10:07;24.52;;;15.38;;
37609;SDS011;23457;51.966;8.230;2023-05-07T00:12:35;21.15;;;15.25;;
37609;SDS011;23457;51.966;8.230;2023-05-07T00:15:02;21.63;;;15.45;;
37609;SDS011;23457;51.966;8.230;2023-05-07T00:17:29;21.52;;;16.23;;
37609;SDS011;23457;51.966;8.230;2023-05-07T00:19:57;24.95;;;16.20;;
37609;SDS011;23457;51.966;8.230;2023-05-07T00:22:23;19.02;;;14.90;;
37609;SDS011;23457;51.966;8.230;2023-05-07T00:24:50;23.63;;;15.93;;
37609;SDS011;23457;51.966;8.230;2023-05-07T00:27:16;21.90;;;15.40;;
37609;SDS011;23457;51.966;8.230;2023-05-07T00:29:43;22.05;;;15.85;;
37609;SDS011;23457;51.966;8.230;2023-05-07T00:32:10;23.25;;;16.30;;
37609;SDS011;23457;51.966;8.230;2023-05-07T00:34:36;23.73;;;18.05;;
37609;SDS011;23457;51.966;8.230;2023-05-07T00:37:03;20.73;;;16.38;;
37609;SDS011;23457;51.966;8.230;2023-05-07T00:39:32;24.02;;;16.40;;
37609;SDS011;23457;51.966;8.230;2023-05-07T00:41:58;30.60;;;18.27;;
37609;SDS011;23457;51.966;8.230;2023-05-07T00:44:26;27.50;;;17.77;;
37609;SDS011;23457;51.966;8.230;2023-05-07T00:46:55;25.83;;;17.40;;
37609;SDS011;23457;51.966;8.230;2023-05-07T00:49:25;23.38;;;16.38;;
37609;SDS011;23457;51.966;8.230;2023-05-07T00:52:02;21.80;;;17.02;;
37609;SDS011;23457;51.966;8.230;2023-05-07T00:54:29;25.15;;;18.27;;
37609;SDS011;23457;51.966;8.230;2023-05-07T00:56:55;23.15;;;17.77;;
37609;SDS011;23457;51.966;8.230;2023-05-07T00:59:22;24.27;;;17.90;;
37609;SDS011;23457;51.966;8.230;2023-05-07T01:01:49;25.85;;;18.65;;
37609;SDS011;23457;51.966;8.230;2023-05-07T01:04:16;23.88;;;17.83;;
37609;SDS011;23457;51.966;8.230;2023-05-07T01:06:44;23.73;;;18.20;;
37609;SDS011;23457;51.966;8.230;2023-05-07T01:09:12;29.42;;;18.80;;
37609;SDS011;23457;51.966;8.230;2023-05-07T01:11:39;27.42;;;17.90;;
37609;SDS011;23457;51.966;8.230;2023-05-07T01:14:06;26.25;;;17.85;;
37609;SDS011;23457;51.966;8.230;2023-05-07T01:16:35;26.90;;;18.52;;
37609;SDS011;23457;51.966;8.230;2023-05-07T01:19:02;25.27;;;17.35;;
37609;SDS011;23457;51.966;8.230;2023-05-07T01:21:30;24.17;;;17.98;;
37609;SDS011;23457;51.966;8.230;2023-05-07T01:24:00;30.92;;;18.73;;
37609;SDS011;23457;51.966;8.230;2023-05-07T01:26:29;24.63;;;18.03;;
37609;SDS011;23457;51.966;8.230;2023-05-07T01:28:56;26.75;;;18.35;;
37609;SDS011;23457;51.966;8.230;2023-05-07T01:31:23;28.88;;;19.20;;
37609;SDS011;23457;51.966;8.230;2023-05-07T01:33:51;27.63;;;19.52;;
37609;SDS011;23457;51.966;8.230;2023-05-07T01:36:19;25.52;;;18.60;;
37609;SDS011;23457;51.966;8.230;2023-05-07T01:38:47;25.60;;;19.15;;
37609;SDS011;23457;51.966;8.230;2023-05-07T01:41:14;25.98;;;19.02;;
37609;SDS011;23457;51.966;8.230;2023-05-07T01:43:41;24.60;;;18.10;;
37609;SDS011;23457;51.966;8.230;2023-05-07T01:46:08;25.00;;;17.92;;
37609;SDS011;23457;51.966;8.230;2023-05-07T01:48:36;28.67;;;19.13;;
37609;SDS011;23457;51.966;8.230;2023-05-07T01:51:04;27.92;;;18.77;;
37609;SDS011;23457;51.966;8.230;2023-05-07T01:53:36;23.20;;;18.05;;
37609;SDS011;23457;51.966;8.230;2023-05-07T01:56:03;25.52;;;17.65;;
37609;SDS011;23457;51.966;8.230;2023-05-07T01:58:32;28.83;;;19.13;;
37609;SDS011;23457;51.966;8.230;2023-05-07T02:01:00;29.27;;;19.70;;
37609;SDS011;23457;51.966;8.230;2023-05-07T02:03:28;30.77;;;19.52;;
37609;SDS011;23457;51.966;8.230;2023-05-07T02:06:03;27.00;;;19.77;;
37609;SDS011;23457;51.966;8.230;2023-05-07T02:08:33;25.27;;;18.58;;
37609;SDS011;23457;51.966;8.230;2023-05-07T02:11:00;26.75;;;19.02;;
37609;SDS011;23457;51.966;8.230;2023-05-07T02:13:29;29.67;;;20.05;;
37609;SDS011;23457;51.966;8.230;2023-05-07T02:15:57;27.67;;;20.80;;
37609;SDS011;23457;51.966;8.230;2023-05-07T02:18:25;26.50;;;19.98;;
37609;SDS011;23457;51.966;8.230;2023-05-07T02:20:51;25.58;;;19.23;;
37609;SDS011;23457;51.966;8.230;2023-05-07T02:23:18;30.90;;;20.42;;
37609;SDS011;23457;51.966;8.230;2023-05-07T02:25:45;27.40;;;21.38;;
37609;SDS011;23457;51.966;8.230;2023-05-07T02:28:12;26.25;;;19.95;;
37609;SDS011;23457;51.966;8.230;2023-05-07T02:30:48;25.60;;;19.02;;
37609;SDS011;23457;51.966;8.230;2023-05-07T02:33:16;28.58;;;19.98;;
37609;SDS011;23457;51.966;8.230;2023-05-07T02:35:42;27.88;;;19.58;;
37609;SDS011;23457;51.966;8.230;2023-05-07T02:38:11;31.83;;;20.87;;
37609;SDS011;23457;51.966;8.230;2023-05-07T02:40:39;27.92;;;19.52;;
37609;SDS011;23457;51.966;8.230;2023-05-07T02:43:05;28.05;;;19.48;;
37609;SDS011;23457;51.966;8.230;2023-05-07T02:45:33;32.58;;;21.33;;
37609;SDS011;23457;51.966;8.230;2023-05-07T02:48:01;26.10;;;19.48;;
37609;SDS011;23457;51.966;8.230;2023-05-07T02:50:27;30.83;;;20.35;;
37609;SDS011;23457;51.966;8.230;2023-05-07T02:52:54;28.13;;;20.23;;
37609;SDS011;23457;51.966;8.230;2023-05-07T02:55:21;26.92;;;19.73;;
37609;SDS011;23457;51.966;8.230;2023-05-07T02:57:48;31.67;;;20.63;;
37609;SDS011;23457;51.966;8.230;2023-05-07T03:00:16;26.45;;;20.65;;
37609;SDS011;23457;51.966;8.230;2023-05-07T03:02:51;30.40;;;21.08;;
37609;SDS011;23457;51.966;8.230;2023-05-07T03:05:18;26.52;;;20.10;;
37609;SDS011;23457;51.966;8.230;2023-05-07T03:07:45;35.60;;;21.60;;
37609;SDS011;23457;51.966;8.230;2023-05-07T03:10:13;29.13;;;21.10;;
37609;SDS011;23457;51.966;8.230;2023-05-07T03:12:40;26.73;;;19.73;;
37609;SDS011;23457;51.966;8.230;2023-05-07T03:15:09;28.08;;;19.80;;
37609;SDS011;23457;51.966;8.230;2023-05-07T03:17:39;31.05;;;21.80;;
37609;SDS011;23457;51.966;8.230;2023-05-07T03:20:06;32.40;;;21.80;;
37609;SDS011;23457;51.966;8.230;2023-05-07T03:22:34;31.25;;;21.13;;
37609;SDS011;23457;51.966;8.230;2023-05-07T03:25:01;30.35;;;21.08;;
37609;SDS011;23457;51.966;8.230;2023-05-07T03:27:28;31.52;;;20.13;;
37609;SDS011;23457;51.966;8.230;2023-05-07T03:29:54;33.58;;;20.90;;
37609;SDS011;23457;51.966;8.230;2023-05-07T03:32:21;30.00;;;21.25;;
37609;SDS011;23457;51.966;8.230;2023-05-07T03:34:48;32.60;;;22.60;;
37609;SDS011;23457;51.966;8.230;2023-05-07T03:37:15;28.95;;;21.75;;
37609;SDS011;23457;51.966;8.230;2023-05-07T03:39:42;31.58;;;22.13;;
37609;SDS011;23457;51.966;8.230;2023-05-07T03:42:09;32.88;;;22.17;;
37609;SDS011;23457;51.966;8.230;2023-05-07T03:44:36;31.10;;;22.45;;
37609;SDS011;23457;51.966;8.230;2023-05-07T03:47:03;30.58;;;21.65;;
37609;SDS011;23457;51.966;8.230;2023-05-07T03:49:31;27.08;;;21.17;;
37609;SDS011;23457;51.966;8.230;2023-05-07T03:51:58;34.88;;;21.65;;
37609;SDS011;23457;51.966;8.230;2023-05-07T03:54:25;30.92;;;22.25;;
37609;SDS011;23457;51.966;8.230;2023-05-07T03:56:51;34.22;;;22.42;;
37609;SDS011;23457;51.966;8.230;2023-05-07T03:59:18;29.20;;;21.65;;
37609;SDS011;23457;51.966;8.230;2023-05-07T04:01:46;31.20;;;22.42;;
37609;SDS011;23457;51.966;8.230;2023-05-07T04:06:42;32.45;;;21.77;;
37609;SDS011;23457;51.966;8.230;2023-05-07T04:09:10;31.45;;;22.20;;
37609;SDS011;23457;51.966;8.230;2023-05-07T04:11:37;33.70;;;22.48;;
37609;SDS011;23457;51.966;8.230;2023-05-07T04:14:08;37.28;;;23.48;;
37609;SDS011;23457;51.966;8.230;2023-05-07T04:16:35;33.03;;;21.90;;
37609;SDS011;23457;51.966;8.230;2023-05-07T04:19:03;29.92;;;22.98;;
37609;SDS011;23457;51.966;8.230;2023-05-07T04:21:30;33.03;;;22.40;;
37609;SDS011;23457;51.966;8.230;2023-05-07T04:23:57;32.30;;;21.75;;
37609;SDS011;23457;51.966;8.230;2023-05-07T04:26:24;32.72;;;22.85;;
37609;SDS011;23457;51.966;8.230;2023-05-07T04:28:51;34.70;;;23.65;;
37609;SDS011;23457;51.966;8.230;2023-05-07T04:31:18;35.83;;;24.00;;
37609;SDS011;23457;51.966;8.230;2023-05-07T04:33:48;35.00;;;23.00;;
37609;SDS011;23457;51.966;8.230;2023-05-07T04:36:15;33.45;;;22.73;;
37609;SDS011;23457;51.966;8.230;2023-05-07T04:38:48;34.20;;;21.95;;
37609;SDS011;23457;51.966;8.230;2023-05-07T04:41:17;33.30;;;22.35;;
37609;SDS011;23457;51.966;8.230;2023-05-07T04:43:43;31.77;;;22.30;;
37609;SDS011;23457;51.966;8.230;2023-05-07T04:46:13;33.35;;;23.67;;
37609;SDS011;23457;51.966;8.230;2023-05-07T04:48:40;34.40;;;22.38;;
37609;SDS011;23457;51.966;8.230;2023-05-07T04:51:07;32.35;;;23.25;;
37609;SDS011;23457;51.966;8.230;2023-05-07T04:53:33;34.53;;;23.63;;
37609;SDS011;23457;51.966;8.230;2023-05-07T04:56:00;30.38;;;21.98;;
37609;SDS011;23457;51.966;8.230;2023-05-07T04:58:34;36.55;;;23.35;;
37609;SDS011;23457;51.966;8.230;2023-05-07T05:01:00;34.17;;;22.80;;
37609;SDS011;23457;51.966;8.230;2023-05-07T05:03:28;34.60;;;23.75;;
37609;SDS011;23457;51.966;8.230;2023-05-07T05:05:56;36.08;;;23.10;;
37609;SDS011;23457;51.966;8.230;2023-05-07T05:08:29;36.60;;;23.48;;
37609;SDS011;23457;51.966;8.230;2023-05-07T05:10:56;36.05;;;22.42;;
37609;SDS011;23457;51.966;8.230;2023-05-07T05:13:24;41.30;;;24.10;;
37609;SDS011;23457;51.966;8.230;2023-05-07T05:15:51;39.15;;;23.17;;
37609;SDS011;23457;51.966;8.230;2023-05-07T05:18:18;40.92;;;24.25;;
37609;SDS011;23457;51.966;8.230;2023-05-07T05:20:44;42.10;;;24.25;;
37609;SDS011;23457;51.966;8.230;2023-05-07T05:23:11;40.83;;;24.17;;
37609;SDS011;23457;51.966;8.230;2023-05-07T05:25:38;39.95;;;24.88;;
37609;SDS011;23457;51.966;8.230;2023-05-07T05:28:09;38.53;;;23.70;;
37609;SDS011;23457;51.966;8.230;2023-05-07T05:30:36;33.85;;;22.63;;
37609;SDS011;23457;51.966;8.230;2023-05-07T05:33:02;36.75;;;23.05;;
37609;SDS011;23457;51.966;8.230;2023-05-07T05:35:30;37.15;;;23.02;;
37609;SDS011;23457;51.966;8.230;2023-05-07T05:38:00;32.15;;;22.30;;
37609;SDS011;23457;51.966;8.230;2023-05-07T05:40:26;35.92;;;23.13;;
37609;SDS011;23457;51.966;8.230;2023-05-07T05:42:53;36.65;;;23.05;;
37609;SDS011;23457;51.966;8.230;2023-05-07T05:45:20;33.92;;;21.98;;
37609;SDS011;23457;51.966;8.230;2023-05-07T05:47:47;39.95;;;23.35;;
37609;SDS011;23457;51.966;8.230;2023-05-07T05:50:13;37.95;;;22.70;;
37609;SDS011;23457;51.966;8.230;2023-05-07T05:52:40;37.28;;;22.70;;
37609;SDS011;23457;51.966;8.230;2023-05-07T05:55:09;39.13;;;23.35;;
37609;SDS011;23457;51.966;8.230;2023-05-07T05:57:37;36.72;;;22.42;;
37609;SDS011;23457;51.966;8.230;2023-05-07T06:00:04;34.35;;;22.00;;
37609;SDS011;23457;51.966;8.230;2023-05-07T06:02:43;34.22;;;22.25;;
37609;SDS011;23457;51.966;8.230;2023-05-07T06:05:14;38.42;;;23.30;;
37609;SDS011;23457;51.966;8.230;2023-05-07T06:07:42;37.28;;;21.63;;
37609;SDS011;23457;51.966;8.230;2023-05-07T06:10:08;37.95;;;22.30;;
37609;SDS011;23457;51.966;8.230;2023-05-07T06:12:36;37.42;;;22.90;;
37609;SDS011;23457;51.966;8.230;2023-05-07T06:15:03;29.02;;;20.52;;
37609;SDS011;23457;51.966;8.230;2023-05-07T06:17:30;34.83;;;21.20;;
37609;SDS011;23457;51.966;8.230;2023-05-07T06:19:57;31.83;;;20.63;;
37609;SDS011;23457;51.966;8.230;2023-05-07T06:22:24;29.30;;;20.70;;
37609;SDS011;23457;51.966;8.230;2023-05-07T06:24:51;29.33;;;19.70;;
37609;SDS011;23457;51.966;8.230;2023-05-07T06:27:18;28.80;;;20.23;;
37609;SDS011;23457;51.966;8.230;2023-05-07T06:29:47;28.58;;;20.38;;
37609;SDS011;23457;51.966;8.230;2023-05-07T06:32:16;29.35;;;19.98;;
37609;SDS011;23457;51.966;8.230;2023-05-07T06:34:44;30.70;;;20.13;;
37609;SDS011;23457;51.966;8.230;2023-05-07T06:37:12;30.48;;;20.90;;
37609;SDS011;23457;51.966;8.230;2023-05-07T06:39:51;27.88;;;20.13;;
37609;SDS011;23457;51.966;8.230;2023-05-07T06:42:18;29.38;;;19.42;;
37609;SDS011;23457;51.966;8.230;2023-05-07T06:44:47;29.67;;;18.75;;
37609;SDS011;23457;51.966;8.230;2023-05-07T06:47:15;25.98;;;18.75;;
37609;SDS011;23457;51.966;8.230;2023-05-07T06:49:45;30.55;;;19.90;;
37609;SDS011;23457;51.966;8.230;2023-05-07T06:52:15;30.70;;;20.27;;
37609;SDS011;23457;51.966;8.230;2023-05-07T06:54:42;30.52;;;19.85;;
37609;SDS011;23457;51.966;8.230;2023-05-07T06:57:09;28.38;;;18.73;;
37609;SDS011;23457;51.966;8.230;2023-05-07T06:59:36;29.90;;;19.00;;
37609;SDS011;23457;51.966;8.230;2023-05-07T07:02:03;30.33;;;19.35;;
37609;SDS011;23457;51.966;8.230;2023-05-07T07:04:30;28.65;;;19.25;;
37609;SDS011;23457;51.966;8.230;2023-05-07T07:07:02;25.23;;;18.33;;
37609;SDS011;23457;51.966;8.230;2023-05-07T07:09:29;26.02;;;18.00;;
37609;SDS011;23457;51.966;8.230;2023-05-07T07:11:56;28.23;;;18.08;;
37609;SDS011;23457;51.966;8.230;2023-05-07T07:14:23;27.42;;;17.40;;
37609;SDS011;23457;51.966;8.230;2023-05-07T07:16:52;24.48;;;17.08;;
37609;SDS011;23457;51.966;8.230;2023-05-07T07:19:20;30.23;;;17.08;;
37609;SDS011;23457;51.966;8.230;2023-05-07T07:21:50;25.30;;;17.15;;
37609;SDS011;23457;51.966;8.230;2023-05-07T07:24:17;23.88;;;16.05;;
37609;SDS011;23457;51.966;8.230;2023-05-07T07:26:51;24.27;;;17.40;;
37609;SDS011;23457;51.966;8.230;2023-05-07T07:29:19;26.25;;;17.17;;
37609;SDS011;23457;51.966;8.230;2023-05-07T07:31:47;24.17;;;16.30;;
37609;SDS011;23457;51.966;8.230;2023-05-07T07:34:17;21.45;;;15.88;;
37609;SDS011;23457;51.966;8.230;2023-05-07T07:36:44;24.65;;;16.75;;
37609;SDS011;23457;51.966;8.230;2023-05-07T07:39:15;21.35;;;15.48;;
37609;SDS011;23457;51.966;8.230;2023-05-07T07:41:43;22.85;;;16.17;;
37609;SDS011;23457;51.966;8.230;2023-05-07T07:44:11;22.63;;;15.77;;
37609;SDS011;23457;51.966;8.230;2023-05-07T07:46:44;21.95;;;15.52;;
37609;SDS011;23457;51.966;8.230;2023-05-07T07:49:11;23.60;;;15.32;;
37609;SDS011;23457;51.966;8.230;2023-05-07T07:51:37;23.00;;;15.52;;
37609;SDS011;23457;51.966;8.230;2023-05-07T07:54:04;18.67;;;14.38;;
37609;SDS011;23457;51.966;8.230;2023-05-07T07:56:33;21.88;;;14.90;;
37609;SDS011;23457;51.966;8.230;2023-05-07T07:59:02;21.23;;;15.07;;
37609;SDS011;23457;51.966;8.230;2023-05-07T08:01:30;20.58;;;14.65;;
37609;SDS011;23457;51.966;8.230;2023-05-07T08:03:58;22.83;;;14.77;;
37609;SDS011;23457;51.966;8.230;2023-05-07T08:06:27;19.13;;;14.38;;
37609;SDS011;23457;51.966;8.230;2023-05-07T08:08:54;20.02;;;14.32;;
37609;SDS011;23457;51.966;8.230;2023-05-07T08:11:21;18.80;;;13.88;;
37609;SDS011;23457;51.966;8.230;2023-05-07T08:13:49;18.50;;;13.68;;
37609;SDS011;23457;51.966;8.230;2023-05-07T08:16:17;16.88;;;12.27;;
37609;SDS011;23457;51.966;8.230;2023-05-07T08:18:44;16.75;;;12.75;;
37609;SDS011;23457;51.966;8.230;2023-05-07T08:21:11;17.70;;;13.27;;
37609;SDS011;23457;51.966;8.230;2023-05-07T08:23:38;17.65;;;13.07;;
37609;SDS011;23457;51.966;8.230;2023-05-07T08:26:07;18.05;;;13.32;;
37609;SDS011;23457;51.966;8.230;2023-05-07T08:28:35;17.10;;;11.85;;
37609;SDS011;23457;51.966;8.230;2023-05-07T08:31:01;18.08;;;12.30;;
37609;SDS011;23457;51.966;8.230;2023-05-07T08:33:33;14.50;;;11.77;;
37609;SDS011;23457;51.966;8.230;2023-05-07T08:36:00;15.82;;;12.32;;
37609;SDS011;23457;51.966;8.230;2023-05-07T08:38:27;15.80;;;11.80;;
37609;SDS011;23457;51.966;8.230;2023-05-07T08:40:54;14.40;;;11.82;;
37609;SDS011;23457;51.966;8.230;2023-05-07T08:43:21;14.65;;;11.57;;
37609;SDS011;23457;51.966;8.230;2023-05-07T08:45:49;16.52;;;12.35;;
37609;SDS011;23457;51.966;8.230;2023-05-07T08:48:25;18.45;;;12.95;;
37609;SDS011;23457;51.966;8.230;2023-05-07T08:51:05;15.35;;;11.38;;
37609;SDS011;23457;51.966;8.230;2023-05-07T08:53:32;14.73;;;11.35;;
37609;SDS011;23457;51.966;8.230;2023-05-07T08:55:59;15.65;;;11.93;;
37609;SDS011;23457;51.966;8.230;2023-05-07T08:58:28;15.23;;;11.15;;
37609;SDS011;23457;51.966;8.230;2023-05-07T09:00:55;17.48;;;11.57;;
37609;SDS011;23457;51.966;8.230;2023-05-07T09:03:22;19.48;;;11.82;;
37609;SDS011;23457;51.966;8.230;2023-05-07T09:05:52;15.35;;;12.02;;
37609;SDS011;23457;51.966;8.230;2023-05-07T09:08:23;16.77;;;12.98;;
37609;SDS011;23457;51.966;8.230;2023-05-07T09:10:52;15.85;;;11.90;;
37609;SDS011;23457;51.966;8.230;2023-05-07T09:13:22;15.80;;;11.50;;
37609;SDS011;23457;51.966;8.230;2023-05-07T09:15:49;13.82;;;10.85;;
37609;SDS011;23457;51.966;8.230;2023-05-07T09:18:16;21.08;;;11.20;;
37609;SDS011;23457;51.966;8.230;2023-05-07T09:20:46;15.68;;;11.38;;
37609;SDS011;23457;51.966;8.230;2023-05-07T09:23:13;16.15;;;11.45;;
37609;SDS011;23457;51.966;8.230;2023-05-07T09:25:43;13.10;;;10.13;;
37609;SDS011;23457;51.966;8.230;2023-05-07T09:28:20;13.43;;;10.18;;
37609;SDS011;23457;51.966;8.230;2023-05-07T09:30:47;15.05;;;10.95;;
37609;SDS011;23457;51.966;8.230;2023-05-07T09:33:14;13.68;;;10.30;;
37609;SDS011;23457;51.966;8.230;2023-05-07T09:35:46;15.63;;;9.95;;
37609;SDS011;23457;51.966;8.230;2023-05-07T09:38:19;15.85;;;11.88;;
37609;SDS011;23457;51.966;8.230;2023-05-07T09:41:01;13.35;;;10.07;;
37609;SDS011;23457;51.966;8.230;2023-05-07T09:43:55;13.82;;;11.43;;
37609;SDS011;23457;51.966;8.230;2023-05-07T09:46:28;15.13;;;10.77;;
37609;SDS011;23457;51.966;8.230;2023-05-07T09:49:00;14.35;;;10.75;;
37609;SDS011;23457;51.966;8.230;2023-05-07T09:51:54;12.95;;;9.48;;
37609;SDS011;23457;51.966;8.230;2023-05-07T09:54:24;12.00;;;8.90;;
37609;SDS011;23457;51.966;8.230;2023-05-07T09:56:54;13.88;;;9.63;;
37609;SDS011;23457;51.966;8.230;2023-05-07T09:59:24;11.27;;;8.95;;
37609;SDS011;23457;51.966;8.230;2023-05-07T10:01:57;13.23;;;9.05;;
37609;SDS011;23457;51.966;8.230;2023-05-07T10:04:33;12.15;;;8.98;;
37609;SDS011;23457;51.966;8.230;2023-05-07T10:07:01;12.30;;;9.93;;
37609;SDS011;23457;51.966;8.230;2023-05-07T10:09:31;15.98;;;10.23;;
37609;SDS011;23457;51.966;8.230;2023-05-07T10:11:58;12.32;;;9.23;;
37609;SDS011;23457;51.966;8.230;2023-05-07T10:14:26;12.80;;;9.95;;
37609;SDS011;23457;51.966;8.230;2023-05-07T10:16:54;11.88;;;9.68;;
37609;SDS011;23457;51.966;8.230;2023-05-07T10:19:22;13.35;;;9.55;;
37609;SDS011;23457;51.966;8.230;2023-05-07T10:21:57;12.98;;;9.07;;
37609;SDS011;23457;51.966;8.230;2023-05-07T10:24:34;15.63;;;12.05;;
37609;SDS011;23457;51.966;8.230;2023-05-07T10:27:12;12.10;;;10.05;;
37609;SDS011;23457;51.966;8.230;2023-05-07T10:32:48;13.67;;;11.07;;
37609;SDS011;23457;51.966;8.230;2023-05-07T10:35:29;13.73;;;9.63;;
37609;SDS011;23457;51.966;8.230;2023-05-07T10:38:00;13.68;;;9.50;;
37609;SDS011;23457;51.966;8.230;2023-05-07T10:40:30;12.48;;;9.70;;
37609;SDS011;23457;51.966;8.230;2023-05-07T10:42:59;16.08;;;13.15;;
37609;SDS011;23457;51.966;8.230;2023-05-07T10:45:33;14.75;;;10.57;;
37609;SDS011;23457;51.966;8.230;2023-05-07T10:48:05;15.25;;;10.13;;
37609;SDS011;23457;51.966;8.230;2023-05-07T10:56:45;12.70;;;9.27;;
37609;SDS011;23457;51.966;8.230;2023-05-07T11:02:04;14.70;;;9.63;;
37609;SDS011;23457;51.966;8.230;2023-05-07T11:08:02;13.82;;;9.90;;
37609;SDS011;23457;51.966;8.230;2023-05-07T11:10:59;11.45;;;9.45;;
37609;SDS011;23457;51.966;8.230;2023-05-07T11:13:43;11.73;;;9.20;;
37609;SDS011;23457;51.966;8.230;2023-05-07T11:16:30;10.88;;;9.02;;
37609;SDS011;23457;51.966;8.230;2023-05-07T11:19:08;12.75;;;9.73;;
37609;SDS011;23457;51.966;8.230;2023-05-07T11:21:43;12.65;;;9.68;;
37609;SDS011;23457;51.966;8.230;2023-05-07T11:24:29;14.30;;;10.07;;
37609;SDS011;23457;51.966;8.230;2023-05-07T11:27:06;12.73;;;10.00;;
37609;SDS011;23457;51.966;8.230;2023-05-07T11:29:33;12.65;;;9.35;;
37609;SDS011;23457;51.966;8.230;2023-05-07T11:32:11;12.77;;;9.73;;
37609;SDS011;23457;51.966;8.230;2023-05-07T11:34:46;13.82;;;9.20;;
37609;SDS011;23457;51.966;8.230;2023-05-07T11:37:19;10.20;;;7.75;;
37609;SDS011;23457;51.966;8.230;2023-05-07T11:40:01;9.60;;;7.93;;
37609;SDS011;23457;51.966;8.230;2023-05-07T11:42:40;9.75;;;7.93;;
37609;SDS011;23457;51.966;8.230;2023-05-07T11:45:11;10.68;;;7.78;;
37609;SDS011;23457;51.966;8.230;2023-05-07T11:47:41;12.32;;;9.75;;
37609;SDS011;23457;51.966;8.230;2023-05-07T11:50:10;11.50;;;8.57;;
37609;SDS011;23457;51.966;8.230;2023-05-07T11:52:38;11.48;;;8.32;;
37609;SDS011;23457;51.966;8.230;2023-05-07T11:55:10;11.05;;;7.97;;
37609;SDS011;23457;51.966;8.230;2023-05-07T11:57:45;8.45;;;7.15;;
37609;SDS011;23457;51.966;8.230;2023-05-07T12:00:12;8.90;;;7.68;;
37609;SDS011;23457;51.966;8.230;2023-05-07T12:02:46;11.73;;;7.30;;
37609;SDS011;23457;51.966;8.230;2023-05-07T12:05:13;8.20;;;6.90;;
37609;SDS011;23457;51.966;8.230;2023-05-07T12:07:41;9.15;;;6.88;;
37609;SDS011;23457;51.966;8.230;2023-05-07T12:10:07;7.40;;;6.38;;
37609;SDS011;23457;51.966;8.230;2023-05-07T12:12:38;7.95;;;6.72;;
37609;SDS011;23457;51.966;8.230;2023-05-07T12:15:06;9.50;;;6.47;;
37609;SDS011;23457;51.966;8.230;2023-05-07T12:17:34;7.60;;;6.80;;
37609;SDS011;23457;51.966;8.230;2023-05-07T12:20:01;8.73;;;7.18;;
37609;SDS011;23457;51.966;8.230;2023-05-07T12:22:28;9.93;;;6.53;;
37609;SDS011;23457;51.966;8.230;2023-05-07T12:24:58;7.10;;;5.93;;
37609;SDS011;23457;51.966;8.230;2023-05-07T12:27:26;6.80;;;5.57;;
37609;SDS011;23457;51.966;8.230;2023-05-07T12:29:52;6.47;;;5.55;;
37609;SDS011;23457;51.966;8.230;2023-05-07T12:32:20;6.13;;;5.53;;
37609;SDS011;23457;51.966;8.230;2023-05-07T12:34:51;7.18;;;5.35;;
37609;SDS011;23457;51.966;8.230;2023-05-07T12:37:23;7.03;;;5.55;;
37609;SDS011;23457;51.966;8.230;2023-05-07T12:42:39;6.38;;;5.00;;
37609;SDS011;23457;51.966;8.230;2023-05-07T12:45:10;5.80;;;5.20;;
37609;SDS011;23457;51.966;8.230;2023-05-07T12:47:43;6.75;;;5.20;;
37609;SDS011;23457;51.966;8.230;2023-05-07T12:50:12;6.57;;;5.47;;
37609;SDS011;23457;51.966;8.230;2023-05-07T12:52:40;7.78;;;5.53;;
37609;SDS011;23457;51.966;8.230;2023-05-07T12:55:07;6.00;;;4.95;;
37609;SDS011;23457;51.966;8.230;2023-05-07T12:57:47;4.90;;;4.20;;
37609;SDS011;23457;51.966;8.230;2023-05-07T13:00:16;4.97;;;4.15;;
37609;SDS011;23457;51.966;8.230;2023-05-07T13:02:43;6.60;;;5.22;;
37609;SDS011;23457;51.966;8.230;2023-05-07T13:05:11;5.93;;;4.32;;
37609;SDS011;23457;51.966;8.230;2023-05-07T13:07:39;6.97;;;4.85;;
37609;SDS011;23457;51.966;8.230;2023-05-07T13:10:07;5.78;;;4.63;;
37609;SDS011;23457;51.966;8.230;2023-05-07T13:12:35;5.57;;;4.30;;
37609;SDS011;23457;51.966;8.230;2023-05-07T13:15:04;5.32;;;4.00;;
37609;SDS011;23457;51.966;8.230;2023-05-07T13:17:31;6.80;;;4.15;;
37609;SDS011;23457;51.966;8.230;2023-05-07T13:19:58;5.10;;;4.50;;
37609;SDS011;23457;51.966;8.230;2023-05-07T13:22:25;6.00;;;4.28;;
37609;SDS011;23457;51.966;8.230;2023-05-07T13:24:51;6.15;;;4.10;;
37609;SDS011;23457;51.966;8.230;2023-05-07T13:27:18;5.60;;;3.90;;
37609;SDS011;23457;51.966;8.230;2023-05-07T13:29:46;5.10;;;3.90;;
37609;SDS011;23457;51.966;8.230;2023-05-07T13:32:13;4.85;;;3.85;;
37609;SDS011;23457;51.966;8.230;2023-05-07T13:34:39;8.32;;;3.90;;
37609;SDS011;23457;51.966;8.230;2023-05-07T13:37:06;7.00;;;3.97;;
37609;SDS011;23457;51.966;8.230;2023-05-07T13:39:36;4.15;;;3.60;;
37609;SDS011;23457;51.966;8.230;2023-05-07T13:42:03;6.57;;;3.75;;
37609;SDS011;23457;51.966;8.230;2023-05-07T13:44:30;4.30;;;3.85;;
37609;SDS011;23457;51.966;8.230;2023-05-07T13:46:56;4.90;;;4.07;;
37609;SDS011;23457;51.966;8.230;2023-05-07T13:49:23;5.57;;;3.95;;
37609;SDS011;23457;51.966;8.230;2023-05-07T13:51:50;4.65;;;4.15;;
37609;SDS011;23457;51.966;8.230;2023-05-07T13:54:17;4.45;;;3.78;;
37609;SDS011;23457;51.966;8.230;2023-05-07T13:56:43;4.75;;;4.28;;
37609;SDS011;23457;51.966;8.230;2023-05-07T13:59:10;5.38;;;3.95;;
37609;SDS011;23457;51.966;8.230;2023-05-07T14:01:37;4.93;;;4.07;;
37609;SDS011;23457;51.966;8.230;2023-05-07T14:04:04;6.40;;;3.95;;
37609;SDS011;23457;51.966;8.230;2023-05-07T14:06:30;5.63;;;4.57;;
37609;SDS011;23457;51.966;8.230;2023-05-07T14:08:57;5.30;;;4.10;;
37609;SDS011;23457;51.966;8.230;2023-05-07T14:11:24;5.13;;;3.78;;
37609;SDS011;23457;51.966;8.230;2023-05-07T14:13:51;5.07;;;3.80;;
37609;SDS011;23457;51.966;8.230;2023-05-07T14:16:17;4.90;;;3.95;;
37609;SDS011;23457;51.966;8.230;2023-05-07T14:18:44;4.68;;;4.25;;
37609;SDS011;23457;51.966;8.230;2023-05-07T14:21:11;4.22;;;3.63;;
37609;SDS011;23457;51.966;8.230;2023-05-07T14:23:37;5.10;;;4.25;;
37609;SDS011;23457;51.966;8.230;2023-05-07T14:26:04;5.93;;;4.13;;
37609;SDS011;23457;51.966;8.230;2023-05-07T14:28:32;5.72;;;4.50;;
37609;SDS011;23457;51.966;8.230;2023-05-07T14:30:58;5.80;;;4.47;;
37609;SDS011;23457;51.966;8.230;2023-05-07T14:33:26;5.22;;;4.15;;
37609;SDS011;23457;51.966;8.230;2023-05-07T14:35:52;5.20;;;4.40;;
37609;SDS011;23457;51.966;8.230;2023-05-07T14:38:19;7.85;;;4.38;;
37609;SDS011;23457;51.966;8.230;2023-05-07T14:40:46;6.75;;;4.53;;
37609;SDS011;23457;51.966;8.230;2023-05-07T14:43:13;6.03;;;5.20;;
37609;SDS011;23457;51.966;8.230;2023-05-07T14:45:39;6.10;;;4.22;;
37609;SDS011;23457;51.966;8.230;2023-05-07T14:48:06;5.88;;;4.70;;
37609;SDS011;23457;51.966;8.230;2023-05-07T14:50:33;7.20;;;4.47;;
37609;SDS011;23457;51.966;8.230;2023-05-07T14:52:59;5.57;;;4.60;;
37609;SDS011;23457;51.966;8.230;2023-05-07T14:55:30;5.22;;;4.72;;
37609;SDS011;23457;51.966;8.230;2023-05-07T14:58:00;7.53;;;5.25;;